sensor_id;sensor_type;location;lat;lon;timestamp;P1;durP1;ratioP1;P2;durP2;ratioP2
23472;SDS011;11909;52.516;13.564;2023-04-30T00:00:36;6.72;;;2.20;;
23472;SDS011;11909;52.516;13.564;2023-04-30T00:03:04;7.50;;;2.35;;
23472;SDS011;11909;52.516;13.564;2023-04-30T00:05:34;5.68;;;2.10;;
23472;SDS011;11909;52.516;13.564;2023-04-30T00:08:02;6.28;;;2.17;;
23472;SDS011;11909;52.516;13.564;2023-04-30T00:10:30;5.47;;;1.90;;
23472;SDS011;11909;52.516;13.564;2023-04-30T00:12:59;5.97;;;2.20;;
23472;SDS011;11909;52.516;13.564;2023-04-30T00:15:26;7.72;;;2.22;;
23472;SDS011;11909;52.516;13.564;2023-04-30T00:17:54;8.82;;;2.10;;
23472;SDS011;11909;52.516;13.564;2023-04-30T00:20:22;7.97;;;1.90;;
23472;SDS011;11909;52.516;13.564;2023-04-30T00:22:51;6.10;;;2.25;;
23472;SDS011;11909;52.516;13.564;2023-04-30T00:25:19;6.53;;;2.25;;
23472;SDS011;11909;52.516;13.564;2023-04-30T00:27:50;9.30;;;2.30;;
23472;SDS011;11909;52.516;13.564;2023-04-30T00:30:18;6.35;;;2.20;;
23472;SDS011;11909;52.516;13.564;2023-04-30T00:32:46;6.90;;;1.85;;
23472;SDS011;11909;52.516;13.564;2023-04-30T00:35:14;7.80;;;2.03;;
23472;SDS011;11909;52.516;13.564;2023-04-30T00:37:42;6.45;;;1.83;;
23472;SDS011;11909;52.516;13.564;2023-04-30T00:40:12;5.13;;;1.90;;
23472;SDS011;11909;52.516;13.564;2023-04-30T00:42:39;10.30;;;2.13;;
23472;SDS011;11909;52.516;13.564;2023-04-30T00:45:07;4.45;;;2.03;;
23472;SDS011;11909;52.516;13.564;2023-04-30T00:50:06;6.68;;;2.50;;
23472;SDS011;11909;52.516;13.564;2023-04-30T00:52:35;9.27;;;2.80;;
23472;SDS011;11909;52.516;13.564;2023-04-30T00:55:03;9.90;;;2.53;;
23472;SDS011;11909;52.516;13.564;2023-04-30T00:57:33;4.65;;;2.05;;
23472;SDS011;11909;52.516;13.564;2023-04-30T01:00:03;7.60;;;2.70;;
23472;SDS011;11909;52.516;13.564;2023-04-30T01:02:31;8.45;;;2.60;;
23472;SDS011;11909;52.516;13.564;2023-04-30T01:04:59;7.30;;;2.80;;
23472;SDS011;11909;52.516;13.564;2023-04-30T01:07:29;8.07;;;2.90;;
23472;SDS011;11909;52.516;13.564;2023-04-30T01:09:57;9.63;;;2.42;;
23472;SDS011;11909;52.516;13.564;2023-04-30T01:12:28;6.40;;;2.17;;
23472;SDS011;11909;52.516;13.564;2023-04-30T01:15:08;5.30;;;2.15;;
23472;SDS011;11909;52.516;13.564;2023-04-30T01:17:44;7.53;;;2.25;;
23472;SDS011;11909;52.516;13.564;2023-04-30T01:20:21;5.47;;;2.42;;
23472;SDS011;11909;52.516;13.564;2023-04-30T01:22:51;7.07;;;2.90;;
23472;SDS011;11909;52.516;13.564;2023-04-30T01:28:35;6.72;;;2.78;;
23472;SDS011;11909;52.516;13.564;2023-04-30T01:31:10;9.05;;;3.20;;
23472;SDS011;11909;52.516;13.564;2023-04-30T01:33:39;9.43;;;2.65;;
23472;SDS011;11909;52.516;13.564;2023-04-30T01:36:18;8.57;;;3.30;;
23472;SDS011;11909;52.516;13.564;2023-04-30T01:39:05;10.65;;;4.68;;
23472;SDS011;11909;52.516;13.564;2023-04-30T01:41:44;10.38;;;4.72;;
23472;SDS011;11909;52.516;13.564;2023-04-30T01:44:31;8.50;;;4.38;;
23472;SDS011;11909;52.516;13.564;2023-04-30T01:47:13;11.82;;;4.85;;
23472;SDS011;11909;52.516;13.564;2023-04-30T01:49:55;8.85;;;3.10;;
23472;SDS011;11909;52.516;13.564;2023-04-30T01:52:30;8.05;;;3.50;;
23472;SDS011;11909;52.516;13.564;2023-04-30T01:55:07;8.20;;;3.00;;
23472;SDS011;11909;52.516;13.564;2023-04-30T01:57:39;4.10;;;2.10;;
23472;SDS011;11909;52.516;13.564;2023-04-30T02:02:40;9.40;;;3.40;;
23472;SDS011;11909;52.516;13.564;2023-04-30T02:05:08;7.85;;;2.60;;
23472;SDS011;11909;52.516;13.564;2023-04-30T02:07:36;4.90;;;2.60;;
23472;SDS011;11909;52.516;13.564;2023-04-30T02:10:08;6.45;;;2.70;;
23472;SDS011;11909;52.516;13.564;2023-04-30T02:12:37;6.13;;;2.40;;
23472;SDS011;11909;52.516;13.564;2023-04-30T02:15:05;5.22;;;2.10;;
23472;SDS011;11909;52.516;13.564;2023-04-30T02:17:36;8.35;;;2.50;;
23472;SDS011;11909;52.516;13.564;2023-04-30T02:20:04;11.38;;;2.85;;
23472;SDS011;11909;52.516;13.564;2023-04-30T02:22:33;4.00;;;2.25;;
23472;SDS011;11909;52.516;13.564;2023-04-30T02:25:02;5.13;;;2.45;;
23472;SDS011;11909;52.516;13.564;2023-04-30T02:27:30;10.25;;;2.58;;
23472;SDS011;11909;52.516;13.564;2023-04-30T02:29:59;12.20;;;2.90;;
23472;SDS011;11909;52.516;13.564;2023-04-30T02:32:27;7.40;;;2.33;;
23472;SDS011;11909;52.516;13.564;2023-04-30T02:34:57;7.25;;;2.67;;
23472;SDS011;11909;52.516;13.564;2023-04-30T02:37:25;7.93;;;2.47;;
23472;SDS011;11909;52.516;13.564;2023-04-30T02:39:53;16.08;;;3.00;;
23472;SDS011;11909;52.516;13.564;2023-04-30T02:42:21;14.77;;;3.47;;
23472;SDS011;11909;52.516;13.564;2023-04-30T02:44:49;7.53;;;2.42;;
23472;SDS011;11909;52.516;13.564;2023-04-30T02:47:17;6.38;;;2.40;;
23472;SDS011;11909;52.516;13.564;2023-04-30T02:49:45;5.90;;;2.38;;
23472;SDS011;11909;52.516;13.564;2023-04-30T02:52:15;6.78;;;2.45;;
23472;SDS011;11909;52.516;13.564;2023-04-30T02:54:43;9.02;;;2.30;;
23472;SDS011;11909;52.516;13.564;2023-04-30T02:57:11;10.15;;;3.03;;
23472;SDS011;11909;52.516;13.564;2023-04-30T02:59:39;12.85;;;2.88;;
23472;SDS011;11909;52.516;13.564;2023-04-30T03:02:11;13.63;;;2.97;;
23472;SDS011;11909;52.516;13.564;2023-04-30T03:04:38;7.72;;;2.28;;
23472;SDS011;11909;52.516;13.564;2023-04-30T03:07:07;9.18;;;3.03;;
23472;SDS011;11909;52.516;13.564;2023-04-30T03:09:37;8.90;;;2.78;;
23472;SDS011;11909;52.516;13.564;2023-04-30T03:12:05;12.35;;;2.67;;
23472;SDS011;11909;52.516;13.564;2023-04-30T03:14:33;11.43;;;3.03;;
23472;SDS011;11909;52.516;13.564;2023-04-30T03:17:01;8.05;;;2.60;;
23472;SDS011;11909;52.516;13.564;2023-04-30T03:19:28;5.80;;;2.10;;
23472;SDS011;11909;52.516;13.564;2023-04-30T03:21:57;7.72;;;2.67;;
23472;SDS011;11909;52.516;13.564;2023-04-30T03:24:25;8.52;;;2.38;;
23472;SDS011;11909;52.516;13.564;2023-04-30T03:26:54;11.10;;;2.85;;
23472;SDS011;11909;52.516;13.564;2023-04-30T03:29:23;8.90;;;2.85;;
23472;SDS011;11909;52.516;13.564;2023-04-30T03:31:51;8.90;;;2.88;;
23472;SDS011;11909;52.516;13.564;2023-04-30T03:34:19;6.43;;;2.70;;
23472;SDS011;11909;52.516;13.564;2023-04-30T03:36:46;10.98;;;2.70;;
23472;SDS011;11909;52.516;13.564;2023-04-30T03:39:14;7.60;;;2.58;;
23472;SDS011;11909;52.516;13.564;2023-04-30T03:41:42;6.53;;;2.40;;
23472;SDS011;11909;52.516;13.564;2023-04-30T03:44:11;10.77;;;3.20;;
23472;SDS011;11909;52.516;13.564;2023-04-30T03:46:41;8.68;;;3.10;;
23472;SDS011;11909;52.516;13.564;2023-04-30T03:49:09;9.55;;;3.03;;
23472;SDS011;11909;52.516;13.564;2023-04-30T03:51:37;11.70;;;3.45;;
23472;SDS011;11909;52.516;13.564;2023-04-30T03:56:35;8.38;;;3.05;;
23472;SDS011;11909;52.516;13.564;2023-04-30T03:59:04;6.00;;;2.72;;
23472;SDS011;11909;52.516;13.564;2023-04-30T04:01:33;10.63;;;3.10;;
23472;SDS011;11909;52.516;13.564;2023-04-30T04:04:01;8.75;;;3.00;;
23472;SDS011;11909;52.516;13.564;2023-04-30T04:06:30;11.18;;;2.92;;
23472;SDS011;11909;52.516;13.564;2023-04-30T04:08:57;9.15;;;3.20;;
23472;SDS011;11909;52.516;13.564;2023-04-30T04:11:25;8.98;;;3.17;;
23472;SDS011;11909;52.516;13.564;2023-04-30T04:13:54;8.30;;;3.20;;
23472;SDS011;11909;52.516;13.564;2023-04-30T04:16:22;10.13;;;3.38;;
23472;SDS011;11909;52.516;13.564;2023-04-30T04:18:51;11.40;;;4.05;;
23472;SDS011;11909;52.516;13.564;2023-04-30T04:21:19;15.93;;;3.55;;
23472;SDS011;11909;52.516;13.564;2023-04-30T04:23:47;8.50;;;3.40;;
23472;SDS011;11909;52.516;13.564;2023-04-30T04:26:17;9.25;;;3.00;;
23472;SDS011;11909;52.516;13.564;2023-04-30T04:28:46;6.85;;;2.95;;
23472;SDS011;11909;52.516;13.564;2023-04-30T04:31:14;7.40;;;3.15;;
23472;SDS011;11909;52.516;13.564;2023-04-30T04:33:43;7.38;;;2.97;;
23472;SDS011;11909;52.516;13.564;2023-04-30T04:36:12;9.18;;;2.95;;
23472;SDS011;11909;52.516;13.564;2023-04-30T04:38:41;10.25;;;2.97;;
23472;SDS011;11909;52.516;13.564;2023-04-30T04:41:09;8.40;;;3.35;;
23472;SDS011;11909;52.516;13.564;2023-04-30T04:43:37;13.27;;;3.92;;
23472;SDS011;11909;52.516;13.564;2023-04-30T04:46:05;12.68;;;3.50;;
23472;SDS011;11909;52.516;13.564;2023-04-30T04:48:35;6.97;;;3.30;;
23472;SDS011;11909;52.516;13.564;2023-04-30T04:51:04;9.27;;;3.70;;
23472;SDS011;11909;52.516;13.564;2023-04-30T04:53:33;8.05;;;3.65;;
23472;SDS011;11909;52.516;13.564;2023-04-30T04:56:02;11.23;;;3.37;;
23472;SDS011;11909;52.516;13.564;2023-04-30T04:58:30;11.65;;;3.75;;
23472;SDS011;11909;52.516;13.564;2023-04-30T05:00:58;6.70;;;3.13;;
23472;SDS011;11909;52.516;13.564;2023-04-30T05:03:26;9.48;;;3.55;;
23472;SDS011;11909;52.516;13.564;2023-04-30T05:05:55;5.78;;;3.28;;
23472;SDS011;11909;52.516;13.564;2023-04-30T05:08:23;16.83;;;3.85;;
23472;SDS011;11909;52.516;13.564;2023-04-30T05:10:53;8.88;;;3.30;;
23472;SDS011;11909;52.516;13.564;2023-04-30T05:13:21;8.23;;;3.00;;
23472;SDS011;11909;52.516;13.564;2023-04-30T05:15:50;11.68;;;4.03;;
23472;SDS011;11909;52.516;13.564;2023-04-30T05:18:19;8.73;;;3.40;;
23472;SDS011;11909;52.516;13.564;2023-04-30T05:20:47;9.00;;;3.10;;
23472;SDS011;11909;52.516;13.564;2023-04-30T05:23:14;10.18;;;3.38;;
23472;SDS011;11909;52.516;13.564;2023-04-30T05:25:43;7.78;;;3.20;;
23472;SDS011;11909;52.516;13.564;2023-04-30T05:28:12;7.68;;;3.10;;
23472;SDS011;11909;52.516;13.564;2023-04-30T05:30:39;9.20;;;3.15;;
23472;SDS011;11909;52.516;13.564;2023-04-30T05:33:08;12.85;;;3.80;;
23472;SDS011;11909;52.516;13.564;2023-04-30T05:35:37;12.32;;;3.53;;
23472;SDS011;11909;52.516;13.564;2023-04-30T05:38:04;9.05;;;3.58;;
23472;SDS011;11909;52.516;13.564;2023-04-30T05:40:32;8.90;;;3.20;;
23472;SDS011;11909;52.516;13.564;2023-04-30T05:43:00;9.35;;;3.25;;
23472;SDS011;11909;52.516;13.564;2023-04-30T05:45:29;14.25;;;3.60;;
23472;SDS011;11909;52.516;13.564;2023-04-30T05:47:58;14.38;;;3.95;;
23472;SDS011;11909;52.516;13.564;2023-04-30T05:50:27;9.55;;;3.13;;
23472;SDS011;11909;52.516;13.564;2023-04-30T05:52:55;12.95;;;4.28;;
23472;SDS011;11909;52.516;13.564;2023-04-30T05:55:23;12.18;;;3.45;;
23472;SDS011;11909;52.516;13.564;2023-04-30T05:57:51;10.68;;;3.47;;
23472;SDS011;11909;52.516;13.564;2023-04-30T06:00:18;8.48;;;3.97;;
23472;SDS011;11909;52.516;13.564;2023-04-30T06:02:48;6.75;;;3.10;;
23472;SDS011;11909;52.516;13.564;2023-04-30T06:05:16;8.70;;;3.40;;
23472;SDS011;11909;52.516;13.564;2023-04-30T06:07:44;7.45;;;3.00;;
23472;SDS011;11909;52.516;13.564;2023-04-30T06:10:12;10.30;;;3.45;;
23472;SDS011;11909;52.516;13.564;2023-04-30T06:12:40;10.45;;;3.70;;
23472;SDS011;11909;52.516;13.564;2023-04-30T06:15:08;9.73;;;3.30;;
23472;SDS011;11909;52.516;13.564;2023-04-30T06:17:36;7.97;;;3.15;;
23472;SDS011;11909;52.516;13.564;2023-04-30T06:20:06;12.85;;;3.40;;
23472;SDS011;11909;52.516;13.564;2023-04-30T06:22:35;9.68;;;3.45;;
23472;SDS011;11909;52.516;13.564;2023-04-30T06:25:03;8.13;;;3.53;;
23472;SDS011;11909;52.516;13.564;2023-04-30T06:27:32;9.45;;;3.70;;
23472;SDS011;11909;52.516;13.564;2023-04-30T06:30:00;9.13;;;3.22;;
23472;SDS011;11909;52.516;13.564;2023-04-30T06:32:28;13.20;;;3.40;;
23472;SDS011;11909;52.516;13.564;2023-04-30T06:34:57;12.05;;;3.63;;
23472;SDS011;11909;52.516;13.564;2023-04-30T06:37:26;8.07;;;3.35;;
23472;SDS011;11909;52.516;13.564;2023-04-30T06:42:23;11.30;;;3.60;;
23472;SDS011;11909;52.516;13.564;2023-04-30T06:44:51;8.75;;;3.50;;
23472;SDS011;11909;52.516;13.564;2023-04-30T06:47:20;10.00;;;3.60;;
23472;SDS011;11909;52.516;13.564;2023-04-30T06:49:49;10.32;;;3.63;;
23472;SDS011;11909;52.516;13.564;2023-04-30T06:52:18;8.27;;;3.35;;
23472;SDS011;11909;52.516;13.564;2023-04-30T06:54:47;13.25;;;4.00;;
23472;SDS011;11909;52.516;13.564;2023-04-30T06:57:15;12.32;;;3.83;;
23472;SDS011;11909;52.516;13.564;2023-04-30T06:59:42;9.10;;;3.60;;
23472;SDS011;11909;52.516;13.564;2023-04-30T07:02:10;10.95;;;3.50;;
23472;SDS011;11909;52.516;13.564;2023-04-30T07:04:38;10.05;;;4.10;;
23472;SDS011;11909;52.516;13.564;2023-04-30T07:07:06;7.97;;;3.55;;
23472;SDS011;11909;52.516;13.564;2023-04-30T07:09:35;11.80;;;3.30;;
23472;SDS011;11909;52.516;13.564;2023-04-30T07:12:04;15.75;;;4.03;;
23472;SDS011;11909;52.516;13.564;2023-04-30T07:14:32;9.90;;;3.60;;
23472;SDS011;11909;52.516;13.564;2023-04-30T07:17:00;6.47;;;3.60;;
23472;SDS011;11909;52.516;13.564;2023-04-30T07:19:27;9.57;;;3.40;;
23472;SDS011;11909;52.516;13.564;2023-04-30T07:21:56;10.35;;;3.88;;
23472;SDS011;11909;52.516;13.564;2023-04-30T07:24:23;8.82;;;3.58;;
23472;SDS011;11909;52.516;13.564;2023-04-30T07:26:52;9.63;;;3.72;;
23472;SDS011;11909;52.516;13.564;2023-04-30T07:29:21;8.30;;;3.33;;
23472;SDS011;11909;52.516;13.564;2023-04-30T07:31:48;9.77;;;3.38;;
23472;SDS011;11909;52.516;13.564;2023-04-30T07:34:18;12.45;;;3.70;;
23472;SDS011;11909;52.516;13.564;2023-04-30T07:36:46;14.32;;;4.07;;
23472;SDS011;11909;52.516;13.564;2023-04-30T07:39:15;9.02;;;4.05;;
23472;SDS011;11909;52.516;13.564;2023-04-30T07:41:43;11.63;;;3.85;;
23472;SDS011;11909;52.516;13.564;2023-04-30T07:44:11;10.60;;;3.33;;
23472;SDS011;11909;52.516;13.564;2023-04-30T07:46:40;10.85;;;3.60;;
23472;SDS011;11909;52.516;13.564;2023-04-30T07:49:08;10.02;;;3.60;;
23472;SDS011;11909;52.516;13.564;2023-04-30T07:51:37;9.90;;;3.92;;
23472;SDS011;11909;52.516;13.564;2023-04-30T07:54:05;9.48;;;3.40;;
23472;SDS011;11909;52.516;13.564;2023-04-30T07:56:33;8.55;;;3.30;;
23472;SDS011;11909;52.516;13.564;2023-04-30T07:59:01;13.80;;;3.75;;
23472;SDS011;11909;52.516;13.564;2023-04-30T08:01:29;10.68;;;3.40;;
23472;SDS011;11909;52.516;13.564;2023-04-30T08:03:59;12.07;;;3.15;;
23472;SDS011;11909;52.516;13.564;2023-04-30T08:06:26;12.85;;;3.45;;
23472;SDS011;11909;52.516;13.564;2023-04-30T08:08:55;9.05;;;3.70;;
23472;SDS011;11909;52.516;13.564;2023-04-30T08:11:22;11.43;;;3.65;;
23472;SDS011;11909;52.516;13.564;2023-04-30T08:13:51;9.45;;;3.47;;
23472;SDS011;11909;52.516;13.564;2023-04-30T08:16:19;10.70;;;3.30;;
23472;SDS011;11909;52.516;13.564;2023-04-30T08:18:47;11.23;;;3.08;;
23472;SDS011;11909;52.516;13.564;2023-04-30T08:21:16;8.10;;;2.97;;
23472;SDS011;11909;52.516;13.564;2023-04-30T08:23:44;9.23;;;3.10;;
23472;SDS011;11909;52.516;13.564;2023-04-30T08:26:12;11.48;;;2.80;;
23472;SDS011;11909;52.516;13.564;2023-04-30T08:28:40;7.85;;;2.85;;
23472;SDS011;11909;52.516;13.564;2023-04-30T08:31:08;8.35;;;2.85;;
23472;SDS011;11909;52.516;13.564;2023-04-30T08:33:36;11.25;;;3.28;;
23472;SDS011;11909;52.516;13.564;2023-04-30T08:36:04;5.60;;;2.60;;
23472;SDS011;11909;52.516;13.564;2023-04-30T08:38:34;8.45;;;3.47;;
23472;SDS011;11909;52.516;13.564;2023-04-30T08:41:04;7.18;;;3.30;;
23472;SDS011;11909;52.516;13.564;2023-04-30T08:43:38;9.15;;;3.50;;
23472;SDS011;11909;52.516;13.564;2023-04-30T08:46:06;10.40;;;3.25;;
23472;SDS011;11909;52.516;13.564;2023-04-30T08:48:34;11.93;;;3.67;;
23472;SDS011;11909;52.516;13.564;2023-04-30T08:51:03;9.57;;;3.47;;
23472;SDS011;11909;52.516;13.564;2023-04-30T08:53:34;10.80;;;2.92;;
23472;SDS011;11909;52.516;13.564;2023-04-30T08:56:04;10.57;;;2.70;;
23472;SDS011;11909;52.516;13.564;2023-04-30T08:58:32;6.70;;;2.80;;
23472;SDS011;11909;52.516;13.564;2023-04-30T09:01:00;8.05;;;2.80;;
23472;SDS011;11909;52.516;13.564;2023-04-30T09:03:29;8.23;;;3.10;;
23472;SDS011;11909;52.516;13.564;2023-04-30T09:05:57;6.07;;;2.60;;
23472;SDS011;11909;52.516;13.564;2023-04-30T09:08:42;5.88;;;2.20;;
23472;SDS011;11909;52.516;13.564;2023-04-30T09:11:20;6.03;;;2.20;;
23472;SDS011;11909;52.516;13.564;2023-04-30T09:13:53;5.28;;;2.30;;
23472;SDS011;11909;52.516;13.564;2023-04-30T09:16:23;8.30;;;2.60;;
23472;SDS011;11909;52.516;13.564;2023-04-30T09:18:52;9.68;;;2.50;;
23472;SDS011;11909;52.516;13.564;2023-04-30T09:21:29;7.68;;;2.60;;
23472;SDS011;11909;52.516;13.564;2023-04-30T09:24:00;3.88;;;1.92;;
23472;SDS011;11909;52.516;13.564;2023-04-30T09:26:32;6.10;;;2.25;;
23472;SDS011;11909;52.516;13.564;2023-04-30T09:29:01;4.55;;;2.10;;
23472;SDS011;11909;52.516;13.564;2023-04-30T09:31:34;7.82;;;2.55;;
23472;SDS011;11909;52.516;13.564;2023-04-30T09:34:02;5.93;;;2.15;;
23472;SDS011;11909;52.516;13.564;2023-04-30T09:36:31;7.63;;;2.30;;
23472;SDS011;11909;52.516;13.564;2023-04-30T09:39:06;8.38;;;2.22;;
23472;SDS011;11909;52.516;13.564;2023-04-30T09:41:41;5.28;;;2.20;;
23472;SDS011;11909;52.516;13.564;2023-04-30T09:46:55;8.18;;;2.65;;
23472;SDS011;11909;52.516;13.564;2023-04-30T09:49:24;9.75;;;2.75;;
23472;SDS011;11909;52.516;13.564;2023-04-30T09:51:52;5.07;;;2.50;;
23472;SDS011;11909;52.516;13.564;2023-04-30T09:54:24;7.13;;;2.53;;
23472;SDS011;11909;52.516;13.564;2023-04-30T09:56:56;6.03;;;2.60;;
23472;SDS011;11909;52.516;13.564;2023-04-30T09:59:26;7.38;;;2.47;;
23472;SDS011;11909;52.516;13.564;2023-04-30T10:01:57;8.02;;;2.67;;
23472;SDS011;11909;52.516;13.564;2023-04-30T10:04:28;4.85;;;2.15;;
23472;SDS011;11909;52.516;13.564;2023-04-30T10:06:59;5.53;;;1.98;;
23472;SDS011;11909;52.516;13.564;2023-04-30T10:09:31;7.40;;;2.20;;
23472;SDS011;11909;52.516;13.564;2023-04-30T10:12:05;5.53;;;2.33;;
23472;SDS011;11909;52.516;13.564;2023-04-30T10:14:41;4.78;;;2.20;;
23472;SDS011;11909;52.516;13.564;2023-04-30T10:17:15;7.00;;;2.20;;
23472;SDS011;11909;52.516;13.564;2023-04-30T10:19:45;8.13;;;2.20;;
23472;SDS011;11909;52.516;13.564;2023-04-30T10:22:15;6.95;;;2.35;;
23472;SDS011;11909;52.516;13.564;2023-04-30T10:24:46;3.45;;;2.13;;
23472;SDS011;11909;52.516;13.564;2023-04-30T10:27:15;4.35;;;2.10;;
23472;SDS011;11909;52.516;13.564;2023-04-30T10:29:44;5.22;;;1.98;;
23472;SDS011;11909;52.516;13.564;2023-04-30T10:32:13;6.85;;;2.40;;
23472;SDS011;11909;52.516;13.564;2023-04-30T10:34:44;6.10;;;2.42;;
23472;SDS011;11909;52.516;13.564;2023-04-30T10:37:21;3.78;;;2.10;;
23472;SDS011;11909;52.516;13.564;2023-04-30T10:39:56;3.05;;;1.98;;
23472;SDS011;11909;52.516;13.564;2023-04-30T10:42:24;5.50;;;2.28;;
23472;SDS011;11909;52.516;13.564;2023-04-30T10:44:52;7.25;;;2.50;;
23472;SDS011;11909;52.516;13.564;2023-04-30T10:47:26;5.80;;;2.17;;
23472;SDS011;11909;52.516;13.564;2023-04-30T10:50:00;6.85;;;2.50;;
23472;SDS011;11909;52.516;13.564;2023-04-30T10:52:29;7.75;;;2.45;;
23472;SDS011;11909;52.516;13.564;2023-04-30T10:54:59;3.78;;;2.00;;
23472;SDS011;11909;52.516;13.564;2023-04-30T10:57:31;6.05;;;2.47;;
23472;SDS011;11909;52.516;13.564;2023-04-30T11:00:19;4.22;;;2.10;;
23472;SDS011;11909;52.516;13.564;2023-04-30T11:02:54;6.38;;;2.15;;
23472;SDS011;11909;52.516;13.564;2023-04-30T11:05:35;5.95;;;2.10;;
23472;SDS011;11909;52.516;13.564;2023-04-30T11:08:04;6.05;;;2.30;;
23472;SDS011;11909;52.516;13.564;2023-04-30T11:10:34;5.30;;;2.13;;
23472;SDS011;11909;52.516;13.564;2023-04-30T11:13:02;8.45;;;2.08;;
23472;SDS011;11909;52.516;13.564;2023-04-30T11:15:33;6.53;;;2.38;;
23472;SDS011;11909;52.516;13.564;2023-04-30T11:18:07;9.07;;;2.40;;
23472;SDS011;11909;52.516;13.564;2023-04-30T11:20:38;6.50;;;2.20;;
23472;SDS011;11909;52.516;13.564;2023-04-30T11:23:07;5.47;;;2.17;;
23472;SDS011;11909;52.516;13.564;2023-04-30T11:25:41;6.72;;;1.95;;
23472;SDS011;11909;52.516;13.564;2023-04-30T11:28:12;3.60;;;1.92;;
23472;SDS011;11909;52.516;13.564;2023-04-30T11:30:49;4.10;;;1.73;;
23472;SDS011;11909;52.516;13.564;2023-04-30T11:33:19;5.57;;;2.38;;
23472;SDS011;11909;52.516;13.564;2023-04-30T11:35:48;6.40;;;2.10;;
23472;SDS011;11909;52.516;13.564;2023-04-30T11:38:19;5.60;;;1.92;;
23472;SDS011;11909;52.516;13.564;2023-04-30T11:40:49;7.82;;;1.88;;
23472;SDS011;11909;52.516;13.564;2023-04-30T11:43:21;5.57;;;2.33;;
23472;SDS011;11909;52.516;13.564;2023-04-30T11:46:00;5.15;;;2.40;;
23472;SDS011;11909;52.516;13.564;2023-04-30T11:48:31;6.43;;;2.40;;
23472;SDS011;11909;52.516;13.564;2023-04-30T11:51:04;5.45;;;2.30;;
23472;SDS011;11909;52.516;13.564;2023-04-30T11:53:40;5.28;;;2.13;;
23472;SDS011;11909;52.516;13.564;2023-04-30T11:56:09;5.45;;;2.30;;
23472;SDS011;11909;52.516;13.564;2023-04-30T11:58:37;5.18;;;2.25;;
23472;SDS011;11909;52.516;13.564;2023-04-30T12:01:06;4.05;;;2.08;;
23472;SDS011;11909;52.516;13.564;2023-04-30T12:03:42;4.55;;;2.22;;
23472;SDS011;11909;52.516;13.564;2023-04-30T12:06:11;5.90;;;2.42;;
23472;SDS011;11909;52.516;13.564;2023-04-30T12:08:40;3.97;;;2.10;;
23472;SDS011;11909;52.516;13.564;2023-04-30T12:13:59;7.15;;;2.25;;
23472;SDS011;11909;52.516;13.564;2023-04-30T12:16:37;3.97;;;1.83;;
23472;SDS011;11909;52.516;13.564;2023-04-30T12:19:07;5.00;;;2.50;;
23472;SDS011;11909;52.516;13.564;2023-04-30T12:21:35;6.07;;;2.42;;
23472;SDS011;11909;52.516;13.564;2023-04-30T12:24:04;7.13;;;2.20;;
23472;SDS011;11909;52.516;13.564;2023-04-30T12:26:36;7.47;;;2.55;;
23472;SDS011;11909;52.516;13.564;2023-04-30T12:29:07;3.25;;;2.00;;
23472;SDS011;11909;52.516;13.564;2023-04-30T12:31:40;4.68;;;2.47;;
23472;SDS011;11909;52.516;13.564;2023-04-30T12:34:09;8.45;;;2.42;;
23472;SDS011;11909;52.516;13.564;2023-04-30T12:36:39;5.38;;;1.90;;
23472;SDS011;11909;52.516;13.564;2023-04-30T12:39:09;5.55;;;2.20;;
23472;SDS011;11909;52.516;13.564;2023-04-30T12:41:40;5.37;;;2.33;;
23472;SDS011;11909;52.516;13.564;2023-04-30T12:44:12;7.97;;;2.30;;
23472;SDS011;11909;52.516;13.564;2023-04-30T12:46:40;5.53;;;2.40;;
23472;SDS011;11909;52.516;13.564;2023-04-30T12:49:09;6.70;;;2.40;;
23472;SDS011;11909;52.516;13.564;2023-04-30T12:51:38;4.80;;;2.15;;
23472;SDS011;11909;52.516;13.564;2023-04-30T12:54:10;6.15;;;2.38;;
23472;SDS011;11909;52.516;13.564;2023-04-30T12:56:37;6.70;;;2.50;;
23472;SDS011;11909;52.516;13.564;2023-04-30T12:59:23;7.78;;;2.33;;
23472;SDS011;11909;52.516;13.564;2023-04-30T13:01:50;6.85;;;2.30;;
23472;SDS011;11909;52.516;13.564;2023-04-30T13:04:19;5.70;;;2.10;;
23472;SDS011;11909;52.516;13.564;2023-04-30T13:06:47;6.78;;;2.22;;
23472;SDS011;11909;52.516;13.564;2023-04-30T13:09:15;6.40;;;1.95;;
23472;SDS011;11909;52.516;13.564;2023-04-30T13:11:45;7.10;;;2.50;;
23472;SDS011;11909;52.516;13.564;2023-04-30T13:14:13;3.75;;;2.22;;
23472;SDS011;11909;52.516;13.564;2023-04-30T13:16:43;7.05;;;2.25;;
23472;SDS011;11909;52.516;13.564;2023-04-30T13:19:11;5.68;;;2.17;;
23472;SDS011;11909;52.516;13.564;2023-04-30T13:21:39;5.20;;;2.25;;
23472;SDS011;11909;52.516;13.564;2023-04-30T13:24:07;4.38;;;2.08;;
23472;SDS011;11909;52.516;13.564;2023-04-30T13:26:35;4.38;;;1.83;;
23472;SDS011;11909;52.516;13.564;2023-04-30T13:29:04;5.30;;;2.03;;
23472;SDS011;11909;52.516;13.564;2023-04-30T13:31:33;7.60;;;2.50;;
23472;SDS011;11909;52.516;13.564;2023-04-30T13:34:01;4.25;;;1.95;;
23472;SDS011;11909;52.516;13.564;2023-04-30T13:36:29;7.00;;;2.35;;
23472;SDS011;11909;52.516;13.564;2023-04-30T13:38:59;6.88;;;2.50;;
23472;SDS011;11909;52.516;13.564;2023-04-30T13:41:26;7.10;;;2.00;;
23472;SDS011;11909;52.516;13.564;2023-04-30T13:43:54;6.72;;;2.30;;
23472;SDS011;11909;52.516;13.564;2023-04-30T13:46:24;7.85;;;2.35;;
23472;SDS011;11909;52.516;13.564;2023-04-30T13:48:52;4.70;;;2.33;;
23472;SDS011;11909;52.516;13.564;2023-04-30T13:51:20;5.30;;;2.00;;
23472;SDS011;11909;52.516;13.564;2023-04-30T13:53:48;6.57;;;2.20;;
23472;SDS011;11909;52.516;13.564;2023-04-30T13:56:16;3.55;;;1.80;;
23472;SDS011;11909;52.516;13.564;2023-04-30T13:58:44;5.78;;;2.10;;
23472;SDS011;11909;52.516;13.564;2023-04-30T14:01:12;4.75;;;1.73;;
23472;SDS011;11909;52.516;13.564;2023-04-30T14:03:42;8.38;;;2.20;;
23472;SDS011;11909;52.516;13.564;2023-04-30T14:06:12;6.38;;;1.95;;
23472;SDS011;11909;52.516;13.564;2023-04-30T14:08:40;5.35;;;1.92;;
23472;SDS011;11909;52.516;13.564;2023-04-30T14:11:07;5.32;;;2.13;;
23472;SDS011;11909;52.516;13.564;2023-04-30T14:13:53;5.30;;;2.00;;
23472;SDS011;11909;52.516;13.564;2023-04-30T14:16:21;4.90;;;1.80;;
23472;SDS011;11909;52.516;13.564;2023-04-30T14:18:51;8.38;;;3.53;;
23472;SDS011;11909;52.516;13.564;2023-04-30T14:21:19;6.60;;;2.50;;
23472;SDS011;11909;52.516;13.564;2023-04-30T14:23:46;4.18;;;1.90;;
23472;SDS011;11909;52.516;13.564;2023-04-30T14:26:14;3.03;;;1.60;;
23472;SDS011;11909;52.516;13.564;2023-04-30T14:28:42;5.72;;;2.38;;
23472;SDS011;11909;52.516;13.564;2023-04-30T14:31:10;4.00;;;2.00;;
23472;SDS011;11909;52.516;13.564;2023-04-30T14:33:38;4.07;;;1.70;;
23472;SDS011;11909;52.516;13.564;2023-04-30T14:36:08;4.53;;;2.10;;
23472;SDS011;11909;52.516;13.564;2023-04-30T14:38:36;6.65;;;1.98;;
23472;SDS011;11909;52.516;13.564;2023-04-30T14:41:04;5.28;;;2.15;;
23472;SDS011;11909;52.516;13.564;2023-04-30T14:43:32;2.92;;;1.73;;
23472;SDS011;11909;52.516;13.564;2023-04-30T14:46:00;6.72;;;1.92;;
23472;SDS011;11909;52.516;13.564;2023-04-30T14:48:28;4.60;;;1.92;;
23472;SDS011;11909;52.516;13.564;2023-04-30T14:50:56;8.65;;;1.83;;
23472;SDS011;11909;52.516;13.564;2023-04-30T14:53:25;5.68;;;2.05;;
23472;SDS011;11909;52.516;13.564;2023-04-30T14:55:53;4.82;;;1.80;;
23472;SDS011;11909;52.516;13.564;2023-04-30T14:58:22;7.57;;;1.98;;
23472;SDS011;11909;52.516;13.564;2023-04-30T15:00:50;5.25;;;1.77;;
23472;SDS011;11909;52.516;13.564;2023-04-30T15:03:18;8.20;;;1.95;;